Time;durP1;ratioP1;P1;durP2;ratioP2;P2;SDS_P1;SDS_P2;PMS_P1;PMS_P2;Temp;Humidity;BMP_temperature;BMP_pressure;BME280_temperature;BME280_humidity;BME280_pressure;Samples;Min_cycle;Max_cycle;Signal;HPM_P1;HPM_P2
2022/10/30 00:00:11;;;;;;;15.70;8.82;;;14.90;99.90;;;;;;5052037;28;20040;-66
2022/10/30 00:02:37;;;;;;;18.58;7.93;;;15.00;99.90;;;;;;5052081;28;20552;-67
2022/10/30 00:05:03;;;;;;;11.70;6.60;;;15.00;99.90;;;;;;5051661;28;20127;-67
2022/10/30 00:07:28;;;;;;;17.63;6.75;;;15.00;99.90;;;;;;5050391;28;20127;-67
2022/10/30 00:09:54;;;;;;;21.90;6.72;;;15.00;99.90;;;;;;5051988;28;20402;-66
2022/10/30 00:12:19;;;;;;;13.48;6.53;;;15.00;99.90;;;;;;5051948;28;20386;-66
2022/10/30 00:14:45;;;;;;;17.27;7.28;;;15.00;99.90;;;;;;5051521;28;20037;-66
2022/10/30 00:17:10;;;;;;;18.95;8.05;;;15.00;99.90;;;;;;5051743;28;20120;-66
2022/10/30 00:19:36;;;;;;;20.17;7.40;;;15.00;99.90;;;;;;5051839;28;20402;-66
2022/10/30 00:22:01;;;;;;;14.68;6.20;;;15.00;99.90;;;;;;5051554;28;20049;-67
2022/10/30 00:24:27;;;;;;;17.02;7.00;;;15.00;99.90;;;;;;5051323;28;20057;-66
2022/10/30 00:26:53;;;;;;;15.88;7.00;;;15.00;99.90;;;;;;5051240;28;20045;-66
2022/10/30 00:29:19;;;;;;;13.95;6.75;;;15.00;99.90;;;;;;5051457;28;20063;-66
2022/10/30 00:31:44;;;;;;;16.67;7.43;;;15.00;99.90;;;;;;5051434;28;20482;-66
2022/10/30 00:34:10;;;;;;;18.38;7.20;;;15.00;99.90;;;;;;5049762;28;20052;-67
2022/10/30 00:36:35;;;;;;;14.85;6.78;;;15.00;99.90;;;;;;5051421;28;20037;-66
2022/10/30 00:39:01;;;;;;;21.15;7.72;;;14.90;99.90;;;;;;5050935;28;20036;-67
2022/10/30 00:41:26;;;;;;;14.15;6.78;;;14.90;99.90;;;;;;5051124;28;20037;-66
2022/10/30 00:43:52;;;;;;;15.63;7.63;;;14.90;99.90;;;;;;5050734;28;20103;-67
2022/10/30 00:46:31;;;;;;;17.65;6.65;;;14.90;99.90;;;;;;5050058;28;20045;-66
2022/10/30 00:49:03;;;;;;;16.90;7.47;;;14.80;99.90;;;;;;5050896;28;20045;-67
2022/10/30 00:51:31;;;;;;;14.75;6.28;;;14.80;99.90;;;;;;5049992;28;20075;-66
2022/10/30 00:53:59;;;;;;;20.25;7.10;;;14.70;99.90;;;;;;5050893;28;20067;-67
2022/10/30 00:56:25;;;;;;;18.10;7.63;;;14.70;99.90;;;;;;5051042;28;20123;-66
2022/10/30 00:59:04;;;;;;;9.32;6.53;;;14.70;99.90;;;;;;5050762;28;20044;-66
2022/10/30 01:01:35;;;;;;;16.17;7.10;;;14.60;99.90;;;;;;5051218;28;20040;-67
2022/10/30 01:04:03;;;;;;;18.63;7.10;;;14.50;99.90;;;;;;5049593;28;20070;-67
2022/10/30 01:06:32;;;;;;;16.17;6.47;;;14.40;99.90;;;;;;5050774;28;20397;-66
2022/10/30 01:08:59;;;;;;;17.30;6.75;;;14.40;99.90;;;;;;5050906;28;20122;-66
2022/10/30 01:11:24;;;;;;;16.75;6.70;;;14.40;99.90;;;;;;5051063;28;20033;-67
2022/10/30 01:13:52;;;;;;;13.35;6.22;;;14.30;99.90;;;;;;5050597;28;20112;-67
2022/10/30 01:16:38;;;;;;;12.00;6.72;;;14.30;99.90;;;;;;5050817;28;20045;-66
2022/10/30 01:19:09;;;;;;;15.73;6.45;;;14.20;99.90;;;;;;5050702;28;20052;-67
2022/10/30 01:21:37;;;;;;;16.67;7.18;;;14.20;99.90;;;;;;5051055;28;20037;-66
2022/10/30 01:24:40;;;;;;;15.80;6.43;;;14.20;99.90;;;;;;5050562;28;20061;-67
2022/10/30 01:27:17;;;;;;;17.45;6.13;;;14.10;99.90;;;;;;5050874;28;20116;-66
2022/10/30 01:30:04;;;;;;;16.48;6.95;;;14.10;99.90;;;;;;5050959;28;20088;-67
2022/10/30 01:32:45;;;;;;;20.23;7.53;;;14.10;99.90;;;;;;5050985;28;20037;-67
2022/10/30 01:35:16;;;;;;;16.08;8.15;;;14.10;99.90;;;;;;5050700;28;20036;-66
2022/10/30 01:37:53;;;;;;;21.83;6.22;;;14.00;99.90;;;;;;5050417;28;20695;-67
2022/10/30 01:40:20;;;;;;;14.57;7.05;;;14.00;99.90;;;;;;5050719;28;20052;-67
2022/10/30 01:42:57;;;;;;;15.43;7.18;;;14.00;99.90;;;;;;5050555;28;20056;-66
2022/10/30 01:45:45;;;;;;;16.48;6.97;;;13.90;99.90;;;;;;5050122;28;20426;-66
2022/10/30 01:48:40;;;;;;;16.67;7.03;;;13.90;99.90;;;;;;5050638;28;20052;-66
2022/10/30 01:51:08;;;;;;;18.10;6.75;;;13.90;99.90;;;;;;5050684;28;20044;-66
2022/10/30 01:54:17;;;;;;;14.02;6.85;;;13.90;99.90;;;;;;5050445;28;20624;-67
2022/10/30 01:56:57;;;;;;;17.63;6.80;;;13.90;99.90;;;;;;5051327;28;20339;-66
2022/10/30 01:59:31;;;;;;;22.15;7.80;;;13.80;99.90;;;;;;5054103;28;20119;-66
2022/10/30 02:01:57;;;;;;;12.32;6.72;;;13.80;99.90;;;;;;5054439;28;20045;-67
2022/10/30 02:04:23;;;;;;;13.20;6.90;;;13.80;99.90;;;;;;5053940;28;20064;-66
2022/10/30 02:06:50;;;;;;;18.40;7.20;;;13.80;99.90;;;;;;5054014;28;20051;-66
2022/10/30 02:09:16;;;;;;;13.57;7.22;;;13.70;99.90;;;;;;5054246;28;20032;-66
2022/10/30 02:11:44;;;;;;;20.40;7.03;;;13.70;99.90;;;;;;5054322;28;20456;-66
2022/10/30 02:14:10;;;;;;;14.35;7.40;;;13.80;99.90;;;;;;5053819;28;20120;-66
2022/10/30 02:16:41;;;;;;;16.13;7.38;;;13.80;99.90;;;;;;5054049;28;20044;-66
2022/10/30 02:19:06;;;;;;;15.70;7.68;;;13.80;99.90;;;;;;5054148;28;20041;-66
2022/10/30 02:21:32;;;;;;;16.50;7.70;;;13.80;99.90;;;;;;5053630;28;20051;-66
2022/10/30 02:23:57;;;;;;;18.65;7.50;;;13.70;99.90;;;;;;5053750;28;20048;-66
2022/10/30 02:26:23;;;;;;;17.25;7.50;;;13.70;99.90;;;;;;5053701;28;20061;-66
2022/10/30 02:28:48;;;;;;;17.45;8.18;;;13.70;99.90;;;;;;5053796;28;20036;-66
2022/10/30 02:31:14;;;;;;;17.67;8.02;;;13.70;99.90;;;;;;5053743;28;20401;-66
2022/10/30 02:33:44;;;;;;;17.85;7.60;;;13.80;99.90;;;;;;5053802;28;20044;-66
2022/10/30 02:36:09;;;;;;;19.20;7.00;;;13.80;99.90;;;;;;5053443;28;20551;-66
2022/10/30 02:38:35;;;;;;;16.02;7.07;;;13.80;99.90;;;;;;5053697;28;20045;-66
2022/10/30 02:41:00;;;;;;;19.15;7.50;;;13.80;99.90;;;;;;5053811;28;20041;-66
2022/10/30 02:43:26;;;;;;;15.90;8.40;;;13.80;99.90;;;;;;5053631;28;20049;-66
2022/10/30 02:45:51;;;;;;;18.00;7.55;;;13.80;99.90;;;;;;5053261;28;20044;-66
2022/10/30 02:48:17;;;;;;;13.95;7.25;;;13.80;99.90;;;;;;5053316;28;20494;-66
2022/10/30 02:50:42;;;;;;;22.33;8.35;;;13.80;99.90;;;;;;5052169;28;20049;-66
2022/10/30 02:53:08;;;;;;;19.30;7.43;;;13.80;99.90;;;;;;5053524;28;20041;-66
2022/10/30 02:55:33;;;;;;;16.63;6.93;;;13.90;99.90;;;;;;5052874;28;20044;-66
2022/10/30 02:57:59;;;;;;;20.17;8.20;;;13.80;99.90;;;;;;5053291;28;20037;-66
2022/10/30 03:00:24;;;;;;;13.63;7.47;;;13.90;99.90;;;;;;5053022;28;20091;-66
2022/10/30 03:02:55;;;;;;;16.55;7.43;;;13.90;99.90;;;;;;5053271;28;20048;-66
2022/10/30 03:05:20;;;;;;;17.30;7.70;;;13.90;99.90;;;;;;5053029;28;20163;-66
2022/10/30 03:07:47;;;;;;;18.15;7.03;;;13.90;99.90;;;;;;5052498;28;20132;-66
2022/10/30 03:10:13;;;;;;;17.70;6.93;;;13.90;99.90;;;;;;5052519;28;20456;-66
2022/10/30 03:12:39;;;;;;;14.25;7.38;;;13.90;99.90;;;;;;5053128;28;20116;-66
2022/10/30 03:15:05;;;;;;;19.10;7.47;;;13.90;99.90;;;;;;5052711;28;20044;-66
2022/10/30 03:17:30;;;;;;;19.42;7.22;;;13.90;99.90;;;;;;5052523;28;20535;-66
2022/10/30 03:19:56;;;;;;;24.33;8.48;;;13.90;99.90;;;;;;5053044;28;20048;-66
2022/10/30 03:22:21;;;;;;;17.50;7.15;;;13.90;99.90;;;;;;5051481;28;20049;-67
2022/10/30 03:24:47;;;;;;;14.20;6.65;;;13.90;99.90;;;;;;5051353;28;20049;-66
2022/10/30 03:27:12;;;;;;;17.90;8.00;;;13.90;99.90;;;;;;5052848;28;20040;-67
2022/10/30 03:29:38;;;;;;;13.30;7.05;;;13.90;99.90;;;;;;5051745;28;20045;-67
2022/10/30 03:32:07;;;;;;;19.95;6.95;;;13.80;99.90;;;;;;5052624;28;20036;-66
2022/10/30 03:34:32;;;;;;;22.25;7.97;;;13.90;99.90;;;;;;5052253;28;20041;-66
2022/10/30 03:36:58;;;;;;;15.13;6.60;;;13.90;99.90;;;;;;5052712;28;20094;-66
2022/10/30 03:39:23;;;;;;;20.55;7.30;;;13.80;99.90;;;;;;5052582;28;20370;-67
2022/10/30 03:41:49;;;;;;;24.85;7.45;;;13.80;99.90;;;;;;5052547;28;20045;-67
2022/10/30 03:44:14;;;;;;;14.95;6.60;;;13.80;99.90;;;;;;5052086;28;20036;-67
2022/10/30 03:46:40;;;;;;;20.02;6.65;;;13.80;99.90;;;;;;5052154;28;20190;-67
2022/10/30 03:49:06;;;;;;;18.85;7.60;;;13.80;99.90;;;;;;5052140;28;20083;-67
2022/10/30 03:51:31;;;;;;;16.92;7.30;;;13.80;99.90;;;;;;5052502;28;20393;-67
2022/10/30 03:53:57;;;;;;;13.63;7.57;;;13.80;99.90;;;;;;5052161;28;20127;-66
2022/10/30 03:56:22;;;;;;;14.88;7.00;;;13.80;99.90;;;;;;5051769;28;20087;-66
2022/10/30 03:58:48;;;;;;;15.15;7.10;;;13.80;99.90;;;;;;5051803;28;20045;-66
2022/10/30 04:01:13;;;;;;;19.63;6.38;;;13.80;99.90;;;;;;5050633;28;20083;-66
2022/10/30 04:03:39;;;;;;;16.63;6.82;;;13.70;99.90;;;;;;5052080;28;20458;-67
2022/10/30 04:06:05;;;;;;;16.45;7.75;;;13.70;99.90;;;;;;5051825;28;20095;-67
2022/10/30 04:08:31;;;;;;;19.92;7.30;;;13.70;99.90;;;;;;5052005;28;20039;-67
2022/10/30 04:10:56;;;;;;;15.35;6.95;;;13.60;99.90;;;;;;5052182;28;20589;-66
2022/10/30 04:13:22;;;;;;;13.32;6.78;;;13.60;99.90;;;;;;5051754;28;20037;-67
2022/10/30 04:15:48;;;;;;;17.40;8.18;;;13.60;99.90;;;;;;5051671;28;20116;-67
2022/10/30 04:18:15;;;;;;;13.80;6.47;;;13.60;99.90;;;;;;5051472;28;20033;-66
2022/10/30 04:20:40;;;;;;;17.20;7.03;;;13.60;99.90;;;;;;5051774;28;20091;-67
2022/10/30 04:23:09;;;;;;;22.30;8.38;;;13.60;99.90;;;;;;5051702;28;20033;-67
2022/10/30 04:25:35;;;;;;;16.85;8.43;;;13.50;99.90;;;;;;5051439;28;20037;-67
2022/10/30 04:28:01;;;;;;;15.65;7.32;;;13.50;99.90;;;;;;5051481;28;20414;-67
2022/10/30 04:30:27;;;;;;;15.38;7.97;;;13.50;99.90;;;;;;5051466;28;20037;-67
2022/10/30 04:32:54;;;;;;;14.93;7.82;;;13.50;99.90;;;;;;5051667;28;20041;-67
2022/10/30 04:35:22;;;;;;;20.67;7.75;;;13.50;99.90;;;;;;5051192;28;20390;-67
2022/10/30 04:37:56;;;;;;;17.50;7.28;;;13.50;99.90;;;;;;5051193;28;20122;-67
2022/10/30 04:40:23;;;;;;;13.20;7.47;;;13.50;99.90;;;;;;5051670;28;20045;-67
2022/10/30 04:42:49;;;;;;;18.05;7.65;;;13.50;99.90;;;;;;5051439;28;20068;-66
2022/10/30 04:45:16;;;;;;;15.25;7.00;;;13.50;99.90;;;;;;5051271;28;20048;-67
2022/10/30 04:47:41;;;;;;;19.80;7.40;;;13.50;99.90;;;;;;5049870;28;20045;-67
2022/10/30 04:50:08;;;;;;;22.63;7.75;;;13.50;99.90;;;;;;5051242;28;20059;-67
2022/10/30 04:52:33;;;;;;;17.10;7.78;;;13.50;99.90;;;;;;5051276;28;20159;-67
2022/10/30 04:54:59;;;;;;;16.17;7.78;;;13.50;99.90;;;;;;5049449;28;20116;-67
2022/10/30 04:57:24;;;;;;;17.85;7.22;;;13.50;99.90;;;;;;5050939;28;20458;-67
2022/10/30 04:59:50;;;;;;;22.25;6.97;;;13.50;99.90;;;;;;5050582;28;20037;-67
2022/10/30 05:02:18;;;;;;;15.90;7.65;;;13.40;99.90;;;;;;5051167;28;20059;-67
2022/10/30 05:04:44;;;;;;;21.70;7.57;;;13.40;99.90;;;;;;5050650;28;20420;-67
2022/10/30 05:07:10;;;;;;;14.88;7.32;;;13.40;99.90;;;;;;5050867;28;20143;-67
2022/10/30 05:09:36;;;;;;;19.38;7.55;;;13.40;99.90;;;;;;5050611;28;20041;-67
2022/10/30 05:12:01;;;;;;;16.23;7.25;;;13.30;99.90;;;;;;5051106;28;20040;-67
2022/10/30 05:14:31;;;;;;;14.77;7.05;;;13.30;99.90;;;;;;5050538;28;20037;-67
2022/10/30 05:16:57;;;;;;;15.85;7.93;;;13.20;99.90;;;;;;5051180;28;20045;-67
2022/10/30 05:19:23;;;;;;;19.00;8.10;;;13.20;99.90;;;;;;5050571;28;20390;-67
2022/10/30 05:21:49;;;;;;;15.90;7.35;;;13.10;99.90;;;;;;5051027;28;20052;-67
2022/10/30 05:24:14;;;;;;;20.85;7.30;;;13.10;99.90;;;;;;5050350;28;20045;-67
2022/10/30 05:26:40;;;;;;;13.75;7.18;;;13.10;99.90;;;;;;5050792;28;20045;-67
2022/10/30 05:29:05;;;;;;;16.08;7.22;;;13.00;99.90;;;;;;5050603;28;20040;-67
2022/10/30 05:31:31;;;;;;;18.77;7.43;;;13.00;99.90;;;;;;5050136;28;20064;-67
2022/10/30 05:33:56;;;;;;;13.70;7.55;;;12.90;99.90;;;;;;5050303;28;20033;-67
2022/10/30 05:36:22;;;;;;;23.58;8.20;;;12.90;99.90;;;;;;5050624;28;20416;-67
2022/10/30 05:38:47;;;;;;;13.88;7.90;;;12.80;99.90;;;;;;5050724;28;20076;-67
2022/10/30 05:41:13;;;;;;;17.10;7.10;;;12.80;99.90;;;;;;5050627;28;20033;-67
2022/10/30 05:43:39;;;;;;;11.70;6.93;;;12.80;99.90;;;;;;5050396;28;20504;-67
2022/10/30 05:46:04;;;;;;;15.88;7.00;;;12.80;99.90;;;;;;5050038;28;20041;-67
2022/10/30 05:48:30;;;;;;;16.83;7.47;;;12.80;99.90;;;;;;5050532;28;20068;-67
2022/10/30 05:50:55;;;;;;;13.70;7.53;;;12.80;99.90;;;;;;5050228;28;20094;-67
2022/10/30 05:53:22;;;;;;;16.35;7.45;;;12.70;99.90;;;;;;5050516;28;20040;-67
2022/10/30 05:55:48;;;;;;;18.30;7.88;;;12.80;99.90;;;;;;5049969;28;20053;-67
2022/10/30 05:58:13;;;;;;;16.25;8.35;;;12.80;99.90;;;;;;5049947;28;20401;-67
2022/10/30 06:00:39;;;;;;;20.73;7.22;;;12.70;99.90;;;;;;5050534;28;20041;-67
2022/10/30 06:03:11;;;;;;;18.17;7.47;;;12.80;99.90;;;;;;5050557;28;20033;-67
2022/10/30 06:05:37;;;;;;;21.73;9.10;;;12.80;99.90;;;;;;5050203;28;20182;-67
2022/10/30 06:08:04;;;;;;;18.40;7.75;;;12.80;99.90;;;;;;5050120;28;20120;-67
2022/10/30 06:10:29;;;;;;;18.52;8.02;;;12.80;99.90;;;;;;5050393;28;20047;-67
2022/10/30 06:12:59;;;;;;;12.15;7.88;;;12.80;99.90;;;;;;5050477;28;20037;-67
2022/10/30 06:15:26;;;;;;;17.95;8.65;;;12.70;99.90;;;;;;5047922;28;20037;-67
2022/10/30 06:17:52;;;;;;;25.70;7.95;;;12.80;99.90;;;;;;5049667;28;20037;-67
2022/10/30 06:20:19;;;;;;;19.20;8.18;;;12.80;99.90;;;;;;5048869;28;20162;-67
2022/10/30 06:23:11;;;;;;;20.25;7.72;;;12.70;99.90;;;;;;5049019;28;20509;-67
2022/10/30 06:25:36;;;;;;;18.40;7.80;;;12.70;99.90;;;;;;5047696;28;20057;-67
2022/10/30 06:28:02;;;;;;;15.43;7.72;;;12.60;99.90;;;;;;5050124;28;20539;-67
2022/10/30 06:30:28;;;;;;;18.30;8.30;;;12.60;99.90;;;;;;5049031;28;20552;-67
2022/10/30 06:33:02;;;;;;;18.92;9.02;;;12.60;99.90;;;;;;5050370;28;20055;-67
2022/10/30 06:35:28;;;;;;;16.48;7.75;;;12.60;99.90;;;;;;5049646;28;20052;-67
2022/10/30 06:37:55;;;;;;;22.27;9.13;;;12.60;99.90;;;;;;5049956;28;20041;-67
2022/10/30 06:40:21;;;;;;;19.33;8.25;;;12.70;99.90;;;;;;5050093;28;20044;-67
2022/10/30 06:42:49;;;;;;;21.50;8.80;;;12.70;99.90;;;;;;5050425;28;20513;-67
2022/10/30 06:45:16;;;;;;;19.13;8.45;;;12.70;99.90;;;;;;5053412;28;20044;-67
2022/10/30 06:47:42;;;;;;;19.13;7.38;;;12.70;99.90;;;;;;5053503;28;20098;-67
2022/10/30 06:50:11;;;;;;;19.65;8.40;;;12.70;99.90;;;;;;5053296;28;20037;-66
2022/10/30 06:52:37;;;;;;;15.52;8.38;;;12.80;99.90;;;;;;5053685;28;20464;-67
2022/10/30 06:55:03;;;;;;;14.90;8.15;;;12.80;99.90;;;;;;5053376;28;20124;-67
2022/10/30 06:57:29;;;;;;;14.73;8.60;;;12.80;99.90;;;;;;5053261;28;20063;-67
2022/10/30 06:59:54;;;;;;;18.70;9.25;;;12.80;99.90;;;;;;5053320;28;20041;-67
2022/10/30 07:02:20;;;;;;;21.83;9.63;;;12.80;99.90;;;;;;5053125;28;20044;-67
2022/10/30 07:04:46;;;;;;;21.52;9.75;;;12.80;99.90;;;;;;5051519;28;20120;-67
2022/10/30 07:07:12;;;;;;;18.63;9.40;;;12.80;99.90;;;;;;5053072;28;20037;-69
2022/10/30 07:09:38;;;;;;;23.88;10.63;;;12.80;99.90;;;;;;5053373;28;20079;-67
2022/10/30 07:12:03;;;;;;;21.65;9.77;;;12.80;99.90;;;;;;5053111;28;20446;-67
2022/10/30 07:14:29;;;;;;;19.85;9.00;;;12.90;99.90;;;;;;5052869;28;20386;-67
2022/10/30 07:16:54;;;;;;;22.45;9.48;;;12.90;99.90;;;;;;5053174;28;20457;-71
2022/10/30 07:19:21;;;;;;;21.40;8.77;;;13.00;99.90;;;;;;5052108;28;20489;-67
2022/10/30 07:21:46;;;;;;;18.88;8.30;;;13.00;99.90;;;;;;5052440;28;20041;-67
2022/10/30 07:24:12;;;;;;;18.17;9.55;;;13.00;99.90;;;;;;5050993;28;20114;-67
2022/10/30 07:26:38;;;;;;;16.48;9.73;;;13.10;99.90;;;;;;5052258;28;20460;-67
2022/10/30 07:29:04;;;;;;;22.70;9.25;;;13.10;99.90;;;;;;5052221;28;20505;-67
2022/10/30 07:31:29;;;;;;;27.15;10.32;;;13.10;99.90;;;;;;5052418;28;20058;-67
2022/10/30 07:33:55;;;;;;;17.25;9.38;;;13.10;99.90;;;;;;5052049;28;20120;-67
2022/10/30 07:36:20;;;;;;;15.30;9.10;;;13.20;99.90;;;;;;5052785;28;20125;-67
2022/10/30 07:38:50;;;;;;;18.50;8.88;;;13.20;99.90;;;;;;5052613;28;20049;-67
2022/10/30 07:41:20;;;;;;;23.38;9.35;;;13.20;99.90;;;;;;5052538;28;20040;-67
2022/10/30 07:43:46;;;;;;;17.73;9.80;;;13.20;99.90;;;;;;5052155;28;20743;-67
2022/10/30 07:46:12;;;;;;;17.33;10.48;;;13.30;99.90;;;;;;5052328;28;20079;-67
2022/10/30 07:48:37;;;;;;;19.15;10.13;;;13.30;99.90;;;;;;5052093;28;20041;-67
2022/10/30 07:51:03;;;;;;;22.67;10.05;;;13.30;99.90;;;;;;5051850;28;20044;-67
2022/10/30 07:53:29;;;;;;;21.77;10.02;;;13.30;99.90;;;;;;5052361;28;20045;-66
2022/10/30 07:55:55;;;;;;;23.02;10.38;;;13.40;99.90;;;;;;5051527;28;20421;-67
2022/10/30 07:58:21;;;;;;;19.40;10.30;;;13.40;99.90;;;;;;5052070;28;20037;-67
2022/10/30 08:00:47;;;;;;;19.55;10.38;;;13.40;99.90;;;;;;5052425;28;20051;-67
2022/10/30 08:03:13;;;;;;;19.95;10.02;;;13.50;99.90;;;;;;5052216;28;20037;-67
2022/10/30 08:05:39;;;;;;;22.77;10.77;;;13.50;99.90;;;;;;5051894;28;20040;-67
2022/10/30 08:08:05;;;;;;;21.80;10.38;;;13.50;99.90;;;;;;5052073;28;20044;-67
2022/10/30 08:10:31;;;;;;;18.15;10.20;;;13.60;99.90;;;;;;5051768;28;20528;-67
2022/10/30 08:12:57;;;;;;;21.80;9.27;;;13.60;99.90;;;;;;5052184;28;20033;-67
2022/10/30 08:15:23;;;;;;;22.65;10.10;;;13.60;99.90;;;;;;5051752;28;20468;-67
2022/10/30 08:17:49;;;;;;;20.85;10.93;;;13.60;99.90;;;;;;5052054;28;20405;-67
2022/10/30 08:20:18;;;;;;;23.45;11.68;;;13.70;99.90;;;;;;5051917;28;20087;-67
2022/10/30 08:22:54;;;;;;;18.98;11.35;;;13.80;99.90;;;;;;5052087;28;20049;-67
2022/10/30 08:25:23;;;;;;;19.20;9.63;;;13.80;99.90;;;;;;5051578;28;20115;-67
2022/10/30 08:28:03;;;;;;;24.42;9.75;;;13.80;99.90;;;;;;5051502;28;20045;-67
2022/10/30 08:30:33;;;;;;;27.27;11.60;;;13.80;99.90;;;;;;5051672;28;20102;-67
2022/10/30 08:33:00;;;;;;;23.92;11.00;;;13.90;99.90;;;;;;5051405;28;20076;-67
2022/10/30 08:35:26;;;;;;;25.48;10.55;;;13.90;99.90;;;;;;5051528;28;20072;-67
2022/10/30 08:37:56;;;;;;;22.95;10.77;;;13.90;99.90;;;;;;5049985;28;20077;-67
2022/10/30 08:40:22;;;;;;;19.73;10.57;;;14.00;99.90;;;;;;5051922;28;20436;-67
2022/10/30 08:42:51;;;;;;;21.42;11.82;;;14.00;99.90;;;;;;5051425;28;20102;-67
2022/10/30 08:45:17;;;;;;;21.90;10.68;;;14.10;99.90;;;;;;5050959;28;20110;-66
2022/10/30 08:47:43;;;;;;;19.85;10.70;;;14.10;99.90;;;;;;5051218;28;20041;-67
2022/10/30 08:50:08;;;;;;;22.20;10.95;;;14.10;99.90;;;;;;5051387;28;20047;-67
2022/10/30 08:52:34;;;;;;;26.33;11.05;;;14.30;99.90;;;;;;5051480;28;20040;-67
2022/10/30 08:54:59;;;;;;;23.13;11.45;;;14.20;99.90;;;;;;5050716;28;20093;-67
2022/10/30 08:57:26;;;;;;;23.67;10.70;;;14.30;99.90;;;;;;5051029;28;20048;-67
2022/10/30 08:59:51;;;;;;;21.17;11.40;;;14.40;99.90;;;;;;5050501;28;20049;-67
2022/10/30 09:02:17;;;;;;;26.05;11.30;;;14.40;99.90;;;;;;5051334;28;20052;-74
2022/10/30 09:04:42;;;;;;;23.20;11.73;;;14.70;99.90;;;;;;5049512;28;20553;-70
2022/10/30 09:07:08;;;;;;;23.15;10.93;;;14.50;99.90;;;;;;5048949;28;20485;-70
2022/10/30 09:09:34;;;;;;;23.15;11.43;;;14.60;99.90;;;;;;5049496;28;20033;-67
2022/10/30 09:11:59;;;;;;;18.25;11.13;;;14.60;99.90;;;;;;5050833;28;20073;-67
2022/10/30 09:14:25;;;;;;;27.20;11.18;;;14.60;99.90;;;;;;5050647;28;20037;-67
2022/10/30 09:16:50;;;;;;;25.75;10.93;;;14.60;99.90;;;;;;5050972;28;20052;-67
2022/10/30 09:19:16;;;;;;;21.60;11.07;;;14.70;99.90;;;;;;5050869;28;20041;-67
2022/10/30 09:21:41;;;;;;;21.40;11.23;;;14.80;99.90;;;;;;5051023;28;20586;-67
2022/10/30 09:24:07;;;;;;;24.98;12.25;;;14.80;99.90;;;;;;5050635;28;20090;-67
2022/10/30 09:26:32;;;;;;;20.38;11.60;;;14.90;99.90;;;;;;5050640;28;20045;-67
2022/10/30 09:28:58;;;;;;;37.55;12.23;;;14.90;99.90;;;;;;5050528;28;20597;-67
2022/10/30 09:31:23;;;;;;;19.83;10.95;;;14.90;99.90;;;;;;5050803;28;20041;-67
2022/10/30 09:33:49;;;;;;;28.60;11.73;;;14.90;99.90;;;;;;5050623;28;20452;-67
2022/10/30 09:36:14;;;;;;;27.00;12.35;;;14.90;99.90;;;;;;5050771;28;20029;-67
2022/10/30 09:38:40;;;;;;;20.10;11.23;;;15.00;99.90;;;;;;5050588;28;20041;-67
2022/10/30 09:41:31;;;;;;;23.27;10.82;;;15.00;99.90;;;;;;5050769;28;20091;-67
2022/10/30 09:44:34;;;;;;;26.08;11.32;;;15.10;99.90;;;;;;5048959;28;20069;-67
2022/10/30 09:47:29;;;;;;;25.85;11.75;;;15.20;99.90;;;;;;5050566;28;20409;-67
2022/10/30 09:50:02;;;;;;;23.05;12.80;;;15.10;99.90;;;;;;5050281;28;20076;-67
2022/10/30 09:52:38;;;;;;;21.52;10.52;;;15.20;99.90;;;;;;5050594;28;20379;-67
2022/10/30 09:55:15;;;;;;;20.45;10.68;;;15.20;99.90;;;;;;5050465;28;20066;-67
2022/10/30 09:58:04;;;;;;;24.58;11.63;;;15.30;99.90;;;;;;5050258;28;20071;-67
2022/10/30 10:00:37;;;;;;;23.33;11.57;;;15.30;99.90;;;;;;5049626;28;20049;-67
2022/10/30 10:03:34;;;;;;;30.55;11.98;;;15.40;99.90;;;;;;5050433;28;20049;-67
2022/10/30 10:06:02;;;;;;;25.42;10.63;;;15.40;99.90;;;;;;5050057;28;20485;-67
2022/10/30 10:08:39;;;;;;;25.77;11.90;;;15.40;99.90;;;;;;5049905;28;20037;-67
2022/10/30 10:11:15;;;;;;;28.42;11.88;;;15.50;99.90;;;;;;5048385;28;20055;-67
2022/10/30 10:13:50;;;;;;;23.58;11.18;;;15.60;99.90;;;;;;5049270;28;20029;-66
2022/10/30 10:16:27;;;;;;;25.52;12.55;;;15.60;99.90;;;;;;5049042;28;20100;-67
2022/10/30 10:18:59;;;;;;;23.40;13.07;;;15.60;99.90;;;;;;5050942;28;20068;-67
2022/10/30 10:21:26;;;;;;;22.17;12.77;;;15.70;99.90;;;;;;5049509;28;20116;-67
2022/10/30 10:23:58;;;;;;;21.23;12.02;;;15.80;99.90;;;;;;5053050;28;20102;-67
2022/10/30 10:26:54;;;;;;;19.10;11.57;;;15.80;99.90;;;;;;5051025;28;20049;-67
2022/10/30 10:29:37;;;;;;;29.90;12.68;;;15.90;99.90;;;;;;5053494;28;20037;-67
2022/10/30 10:32:21;;;;;;;25.30;12.48;;;16.00;99.90;;;;;;5050916;28;20120;-67
2022/10/30 10:35:01;;;;;;;26.30;12.40;;;16.10;99.90;;;;;;5050310;28;20051;-67
2022/10/30 10:37:43;;;;;;;26.58;12.38;;;16.10;99.90;;;;;;5050884;28;20051;-67
2022/10/30 10:40:50;;;;;;;24.88;11.18;;;16.10;99.90;;;;;;5052269;28;20044;-67
2022/10/30 10:43:41;;;;;;;26.98;10.70;;;16.20;99.90;;;;;;5050977;28;20125;-66
2022/10/30 10:46:12;;;;;;;28.63;12.05;;;16.20;99.90;;;;;;5053064;28;20056;-70
2022/10/30 10:49:25;;;;;;;21.65;11.23;;;16.30;99.90;;;;;;5053192;28;20404;-67
2022/10/30 10:52:18;;;;;;;29.70;11.50;;;16.40;99.90;;;;;;5050504;28;20037;-67
2022/10/30 10:54:51;;;;;;;28.80;11.60;;;16.40;99.90;;;;;;5050723;28;20508;-67
2022/10/30 10:57:34;;;;;;;24.42;11.60;;;16.50;99.90;;;;;;5050760;28;20053;-67
2022/10/30 11:00:22;;;;;;;24.48;12.40;;;16.60;99.90;;;;;;5050773;28;20045;-68
2022/10/30 11:03:02;;;;;;;28.17;11.27;;;16.70;99.90;;;;;;5045464;28;20420;-67
2022/10/30 11:05:51;;;;;;;23.73;12.20;;;16.70;99.90;;;;;;5050529;28;20522;-67
2022/10/30 11:08:29;;;;;;;26.15;11.70;;;16.70;99.90;;;;;;5033841;28;20049;-67
2022/10/30 11:10:57;;;;;;;29.65;11.98;;;16.80;99.90;;;;;;5034293;28;20066;-67
2022/10/30 11:13:39;;;;;;;28.33;11.10;;;16.70;99.90;;;;;;5050614;28;20428;-67
2022/10/30 11:16:14;;;;;;;20.70;10.48;;;16.70;99.90;;;;;;5050624;28;20119;-67
2022/10/30 11:18:41;;;;;;;22.77;10.82;;;16.70;99.90;;;;;;5050490;28;20041;-67
2022/10/30 11:21:09;;;;;;;24.63;11.43;;;16.80;99.90;;;;;;5050672;28;20052;-67
2022/10/30 11:23:46;;;;;;;19.58;11.45;;;16.80;99.90;;;;;;5033610;28;20132;-67
2022/10/30 11:26:17;;;;;;;23.80;11.02;;;16.80;99.90;;;;;;5032045;28;20045;-67
2022/10/30 11:28:52;;;;;;;22.35;10.90;;;16.90;99.90;;;;;;5032838;28;20126;-67
2022/10/30 11:31:26;;;;;;;24.33;10.90;;;16.90;99.90;;;;;;5032435;28;20044;-67
2022/10/30 11:33:52;;;;;;;31.23;11.07;;;17.00;99.90;;;;;;5032561;28;20052;-68
2022/10/30 11:36:22;;;;;;;25.25;10.57;;;17.00;99.90;;;;;;5032988;28;20034;-67
2022/10/30 11:38:47;;;;;;;21.45;10.30;;;17.20;99.90;;;;;;5033255;28;20042;-67
2022/10/30 11:41:13;;;;;;;20.73;11.00;;;17.10;99.90;;;;;;5032969;28;20490;-67
2022/10/30 11:43:40;;;;;;;21.42;9.85;;;17.10;99.90;;;;;;5032796;28;20131;-68
2022/10/30 11:46:15;;;;;;;22.00;9.85;;;17.10;99.90;;;;;;5032504;28;20048;-67
2022/10/30 11:48:43;;;;;;;26.67;9.80;;;17.20;99.90;;;;;;5031406;28;20426;-67
2022/10/30 11:51:10;;;;;;;25.05;10.40;;;17.20;99.90;;;;;;5032397;28;20116;-67
2022/10/30 11:53:56;;;;;;;19.67;9.90;;;17.30;99.90;;;;;;5032715;28;20045;-67
2022/10/30 11:56:22;;;;;;;21.67;10.02;;;17.30;99.90;;;;;;5032308;28;20105;-67
2022/10/30 11:58:57;;;;;;;23.02;10.57;;;17.40;99.90;;;;;;5032550;28;20079;-67
2022/10/30 12:01:25;;;;;;;19.92;9.80;;;17.40;99.90;;;;;;5039960;28;20389;-67
2022/10/30 12:03:52;;;;;;;21.08;10.20;;;17.40;99.90;;;;;;5052197;28;20075;-67
2022/10/30 12:06:26;;;;;;;21.27;10.20;;;17.40;99.90;;;;;;5052199;28;20041;-67
2022/10/30 12:09:01;;;;;;;26.55;10.20;;;17.50;99.90;;;;;;5051956;28;20467;-67
2022/10/30 12:11:30;;;;;;;23.73;9.73;;;17.50;99.90;;;;;;5051911;28;20056;-67
2022/10/30 12:13:56;;;;;;;24.90;9.90;;;17.50;99.90;;;;;;5051824;28;20036;-67
2022/10/30 12:16:22;;;;;;;21.85;10.13;;;17.60;99.90;;;;;;5051935;28;20041;-67
2022/10/30 12:19:01;;;;;;;27.73;10.43;;;17.70;99.90;;;;;;5051669;28;20068;-67
2022/10/30 12:21:33;;;;;;;22.23;10.52;;;17.80;99.90;;;;;;5051960;28;20408;-67
2022/10/30 12:24:05;;;;;;;19.17;9.70;;;17.60;99.90;;;;;;5051299;28;20275;-67
2022/10/30 12:26:33;;;;;;;20.10;9.85;;;17.60;99.90;;;;;;5051942;28;20044;-68
2022/10/30 12:29:03;;;;;;;23.98;9.80;;;17.70;99.90;;;;;;5051448;28;20418;-67
2022/10/30 12:31:42;;;;;;;21.77;9.20;;;17.80;99.90;;;;;;5051909;28;20067;-67
2022/10/30 12:34:32;;;;;;;22.98;10.43;;;17.80;99.90;;;;;;5050998;28;20493;-67
2022/10/30 12:37:13;;;;;;;22.05;10.27;;;17.80;99.90;;;;;;5051343;28;20134;-67
2022/10/30 12:40:03;;;;;;;19.75;9.15;;;17.70;99.90;;;;;;5050348;28;20132;-67
2022/10/30 12:42:34;;;;;;;29.88;10.38;;;17.80;99.90;;;;;;5051172;28;20051;-67
2022/10/30 12:45:13;;;;;;;23.27;9.85;;;17.70;99.90;;;;;;5049992;28;20378;-67